Terminal Aerodrome Forecast
Issued by NWS

Home | Current Version | Previous Version | Text Only | Print | Product List | Glossary On
Versions: 1 2 3 4 5 6 7 8 9 10 11 12 13
000
FTUS45 KABQ 191139
TAFFMN
TAF
KFMN 191139Z 1912/2012 11013KT P6SM SKC
     FM191400 14015G25KT P6SM SCT250
     FM192100 19025G35KT P6SM SCT150
     FM200300 22015G25KT P6SM BKN130
     FM200800 26012G20KT P6SM SCT130=

USA.gov is the U.S. government's official web portal to all federal, state and local government web resources and services.